Terminal Aerodrome Forecast
Issued by NWS

Home | Current Version | Previous Version | Text Only | Print | Product List | Glossary On
Versions: 1 2 3 4 5 6 7 8 9 10 11 12 13 14 15 16 17
241
FTUS43 KSGF 281120
TAFBBG
TAF
KBBG 281120Z 2812/0112 16008KT P6SM BKN010
     FM281700 21014G23KT P6SM BKN025
     FM282200 20012G21KT P6SM VCTS BKN015CB PROB30 0102/0107 4SM TS
      BKN025CB
     FM010700 21014KT P6SM BKN030 WS018/22050KT
     FM010900 29012KT P6SM BKN025=

USA.gov is the U.S. government's official web portal to all federal, state and local government web resources and services.